KNBG/NBG METAR and TAF weather

Enter ICAO airport designator
Station Type Date Time Source
KNBG METAR 2021/10/22 19:02 UTC NOAA

KNBG 221902Z 08007KT 10SM TS SCT028CB BKN060 28/22 A3002 RMK AO2 TSB02 OCNL LTGICCCCG SE TS SE MOV SE T1 SET T02830222 $


Station Type Date Time Source
KNBG Decoded METAR 2021/10/22 19:02 UTC NOAA

NEW ORLEANS NAVAL AIR STN, LA, United States (KNBG) 29-50N 90-01W
Oct 22, 2021 - 03:02 PM EDT / 2021.10.22 1902 UTC
Wind: from the E (080 degrees) at 8 MPH (7 KT):0
Visibility: 10 mile(s):0
Sky conditions: mostly cloudy
Weather: thunder; Cumulonimbus clouds, lightning observed
Temperature: 82.9 F (28.3 C)
Dew Point: 72.0 F (22.2 C)
Relative Humidity: 69%
Pressure (altimeter): 30.02 in. Hg (1016 hPa)
ob: KNBG 221902Z 08007KT 10SM TS SCT028CB BKN060 28/22 A3002 RMK AO2 TSB02 OCNL LTGICCCCG SE TS SE MOV SE T1 SET T02830222
cycle: 19

Station Type Date Time Source
KNBG TAF 2021/10/22 17:34 UTC NOAA

TAF
AMD KNBG 2217/2315 VRB06KT 9999 VCSH SCT025 SCT120 BKN250 QNH3002INS
TEMPO 2218/2220 19006KT 6000 -SHRA BR BKN022 BKN120 OVC250
BECMG 2220/2222 VRB06KT 9999 SCT025CB BKN040 BKN080 BKN250 QNH2996INS
TEMPO 2221/2302 VRB20G30KT 3200 TSRA BR BKN020CB OVC050
BECMG 2302/2304 18006KT 6000 BR FEW010 SCT035 BKN250 QNH3000INS
TEMPO 2307/2311 VRB03KT 1200 BR VV003
BECMG 2311/2313 VRB05KT 8000 BR SCT007 BKN030 BKN120 BKN250 QNH3005INS T31/2221Z T19/2312Z
AMD 1750 FN20039

Example: see airport list